Time;durP1;ratioP1;P1;durP2;ratioP2;P2;SDS_P1;SDS_P2;PMS_P1;PMS_P2;Temp;Humidity;BMP_temperature;BMP_pressure;BME280_temperature;BME280_humidity;BME280_pressure;Samples;Min_cycle;Max_cycle;Signal;HPM_P1;HPM_P2
2022/06/06 00:01:47;;;;;;;39.47;17.50;;;;;;;13.60;100.00;101328.97;5094238;28;20032;-68
2022/06/06 00:04:13;;;;;;;41.38;17.25;;;;;;;13.52;100.00;101317.41;5095448;28;20028;-68
2022/06/06 00:06:39;;;;;;;41.83;16.95;;;;;;;13.50;100.00;101320.03;5095884;28;20466;-67
2022/06/06 00:09:06;;;;;;;37.22;17.10;;;;;;;13.56;100.00;101319.22;5095843;28;20028;-69
2022/06/06 00:11:33;;;;;;;40.42;17.15;;;;;;;13.49;100.00;101319.13;5093597;28;20024;-68
2022/06/06 00:13:59;;;;;;;43.28;17.75;;;;;;;13.52;100.00;101302.44;5095330;28;20024;-68
2022/06/06 00:16:24;;;;;;;38.83;16.15;;;;;;;13.54;100.00;101313.00;5094324;28;20047;-68
2022/06/06 00:18:50;;;;;;;30.80;14.13;;;;;;;13.49;100.00;101302.41;5100798;28;20044;-67
2022/06/06 00:21:15;;;;;;;34.08;14.50;;;;;;;13.49;100.00;101312.97;5100272;28;20066;-67
2022/06/06 00:23:41;;;;;;;28.50;11.65;;;;;;;13.48;100.00;101312.09;5099385;28;20022;-66
2022/06/06 00:26:09;;;;;;;25.02;11.88;;;;;;;13.54;100.00;101302.44;5104547;28;20032;-67
2022/06/06 00:28:35;;;;;;;25.30;12.20;;;;;;;13.51;100.00;101299.78;5101986;28;20035;-68
2022/06/06 00:34:48;;;;;;;29.98;14.45;;;;;;;13.51;100.00;101297.13;5092999;28;20024;-67
2022/06/06 00:36:37;;;;;;;24.73;12.18;;;;;;;13.51;100.00;101294.47;5090927;28;20051;-67
2022/06/06 00:39:05;;;;;;;27.88;13.38;;;;;;;13.52;100.00;101304.19;5096451;28;20132;-67
2022/06/06 00:41:30;;;;;;;28.45;13.45;;;;;;;13.45;100.00;101301.47;5096813;28;20113;-67
2022/06/06 00:44:06;;;;;;;31.20;14.35;;;;;;;13.50;100.00;101298.91;5116298;27;20047;-67
2022/06/06 00:46:39;;;;;;;28.73;14.55;;;;;;;13.48;100.00;101290.94;5096695;28;20123;-68
2022/06/06 00:49:08;;;;;;;32.30;15.98;;;;;;;13.51;100.00;101300.69;5093996;28;20036;-68
2022/06/06 00:51:35;;;;;;;32.25;14.50;;;;;;;13.51;100.00;101289.19;5098318;28;20421;-69
2022/06/06 00:54:02;;;;;;;30.65;15.82;;;;;;;13.51;100.00;101283.91;5105782;28;20068;-69
2022/06/06 00:56:43;;;;;;;35.60;16.10;;;;;;;13.53;100.00;101288.34;5100016;28;20434;-67
2022/06/06 00:59:19;;;;;;;34.95;14.80;;;;;;;13.46;100.00;101282.09;5095231;28;20035;-66
2022/06/06 01:01:45;;;;;;;31.65;13.73;;;;;;;13.44;100.00;101283.84;5104101;28;20122;-68
2022/06/06 01:04:14;;;;;;;30.65;15.77;;;;;;;13.49;100.00;101282.13;5112815;28;20103;-68
2022/06/06 01:06:42;;;;;;;33.33;14.77;;;;;;;13.55;100.00;101283.06;5111329;28;20039;-67
2022/06/06 01:09:09;;;;;;;29.83;15.70;;;;;;;13.53;100.00;101287.47;5097201;27;20049;-68
2022/06/06 01:11:37;;;;;;;33.55;15.07;;;;;;;13.50;100.00;101283.03;5097405;28;20117;-68
2022/06/06 01:14:05;;;;;;;38.30;16.48;;;;;;;13.49;100.00;101287.41;5096695;28;20032;-67
2022/06/06 01:16:50;;;;;;;39.40;16.60;;;;;;;13.55;100.00;101280.44;5095170;28;20159;-66
2022/06/06 01:19:40;;;;;;;33.50;15.75;;;;;;;13.52;100.00;101276.00;5094175;28;20028;-68
2022/06/06 01:22:13;;;;;;;31.33;15.07;;;;;;;13.55;100.00;101270.75;5086243;28;20023;-67
2022/06/06 01:24:57;;;;;;;43.37;16.80;;;;;;;13.55;100.00;101270.75;5095253;28;20026;-69
2022/06/06 01:27:31;;;;;;;;;;;;;;;13.56;100.00;101263.69;5092605;28;20634;-68
2022/06/06 01:30:01;;;;;;;36.90;16.38;;;;;;;13.54;100.00;101262.78;5093192;28;19919;-69
2022/06/06 01:32:33;;;;;;;36.15;17.30;;;;;;;13.58;100.00;101259.28;5092614;28;20080;-67
2022/06/06 01:34:58;;;;;;;46.63;18.15;;;;;;;13.59;100.00;101261.06;5102086;28;20502;-67
2022/06/06 01:37:26;;;;;;;40.90;16.98;;;;;;;13.60;100.00;101265.50;5092301;28;20028;-68
2022/06/06 01:39:52;;;;;;;40.28;17.23;;;;;;;13.68;100.00;101271.75;5092351;28;20039;-67
2022/06/06 01:42:26;;;;;;;39.92;16.80;;;;;;;13.70;100.00;101280.63;5094036;28;20020;-68
2022/06/06 01:45:00;;;;;;;36.30;16.17;;;;;;;13.70;100.00;101270.03;5085446;28;20031;-67
2022/06/06 01:47:30;;;;;;;33.08;15.48;;;;;;;13.67;100.00;101264.69;5088824;28;20059;-67
2022/06/06 01:49:58;;;;;;;38.47;15.55;;;;;;;13.69;100.00;101251.47;5091998;28;20522;-67
2022/06/06 01:52:24;;;;;;;36.53;16.13;;;;;;;13.68;100.00;101255.91;5095734;28;20034;-67
2022/06/06 01:54:54;;;;;;;32.28;15.43;;;;;;;13.67;100.00;101254.13;5102513;28;20479;-68
2022/06/06 01:57:21;;;;;;;37.35;16.98;;;;;;;13.68;100.00;101266.47;5093259;28;20043;-68
2022/06/06 01:59:47;;;;;;;35.90;15.98;;;;;;;13.70;100.00;101258.56;5093202;28;20046;-68
2022/06/06 02:02:12;;;;;;;31.33;16.10;;;;;;;13.71;100.00;101260.34;5092907;28;20475;-67
2022/06/06 02:04:37;;;;;;;38.83;16.88;;;;;;;13.69;100.00;101252.38;5093717;28;20038;-67
2022/06/06 02:07:03;;;;;;;38.85;16.90;;;;;;;13.72;100.00;101247.13;5092819;28;20855;-68
2022/06/06 02:09:31;;;;;;;37.45;16.48;;;;;;;13.73;100.00;101245.38;5093867;28;20028;-68
2022/06/06 02:11:59;;;;;;;36.28;16.77;;;;;;;13.70;100.00;101243.59;5095275;28;20020;-67
2022/06/06 02:14:25;;;;;;;38.55;16.83;;;;;;;13.77;100.00;101240.13;5107572;28;20418;-68
2022/06/06 02:16:51;;;;;;;38.83;15.93;;;;;;;13.81;100.00;101244.56;5096746;28;20030;-67
2022/06/06 02:19:16;;;;;;;36.17;16.45;;;;;;;13.75;100.00;101244.50;5098762;28;20030;-67
2022/06/06 02:21:42;;;;;;;41.55;16.83;;;;;;;13.73;100.00;101245.38;5103290;28;20024;-68
2022/06/06 02:24:07;;;;;;;35.70;15.85;;;;;;;13.71;100.00;101249.75;5100238;28;20020;-67
2022/06/06 02:26:33;;;;;;;39.13;17.08;;;;;;;13.73;100.00;101253.31;5108050;28;20028;-67
2022/06/06 02:28:58;;;;;;;32.88;15.55;;;;;;;13.75;100.00;101252.44;5103453;28;20024;-67
2022/06/06 02:31:24;;;;;;;35.60;16.85;;;;;;;13.85;100.00;101241.94;5094698;28;20073;-67
2022/06/06 02:33:49;;;;;;;43.40;18.15;;;;;;;13.78;100.00;101241.91;5109320;28;20055;-68
2022/06/06 02:36:14;;;;;;;34.50;15.93;;;;;;;13.76;100.00;101238.34;5098037;28;20066;-68
2022/06/06 02:38:40;;;;;;;35.00;15.45;;;;;;;13.79;100.00;101248.06;5100089;28;20380;-67
2022/06/06 02:41:08;;;;;;;40.83;15.85;;;;;;;13.77;100.00;101250.69;5093958;28;20468;-68
2022/06/06 02:43:42;;;;;;;35.78;15.60;;;;;;;13.80;100.00;101242.78;5092925;28;20027;-68
2022/06/06 02:46:11;;;;;;;33.78;15.00;;;;;;;13.81;100.00;101252.50;5090764;28;20353;-67
2022/06/06 02:48:36;;;;;;;38.30;16.77;;;;;;;13.78;100.00;101241.91;5091030;28;20174;-67
2022/06/06 02:51:02;;;;;;;40.92;15.90;;;;;;;13.81;100.00;101243.69;5091782;28;20138;-67
2022/06/06 02:53:29;;;;;;;42.78;16.35;;;;;;;13.77;100.00;101234.84;5092514;28;20066;-68
2022/06/06 02:55:56;;;;;;;34.15;15.95;;;;;;;13.76;100.00;101224.25;5092803;28;20032;-68
2022/06/06 02:58:23;;;;;;;35.75;16.42;;;;;;;13.75;100.00;101215.41;5089479;28;20027;-69
2022/06/06 03:00:49;;;;;;;37.50;16.85;;;;;;;13.75;100.00;101215.41;5094695;28;20060;-67
2022/06/06 03:03:14;;;;;;;39.92;17.08;;;;;;;13.79;100.00;101219.84;5092777;28;20058;-68
2022/06/06 03:05:55;;;;;;;32.13;15.27;;;;;;;13.75;100.00;101225.09;5100748;28;20034;-68
2022/06/06 03:08:45;;;;;;;32.28;13.88;;;;;;;13.77;100.00;101229.53;5094355;28;20024;-69
2022/06/06 03:11:26;;;;;;;38.97;16.13;;;;;;;13.73;100.00;101232.16;5095303;28;20023;-67
2022/06/06 03:14:09;;;;;;;39.67;16.73;;;;;;;13.76;100.00;101248.91;5089949;28;20024;-69
2022/06/06 03:22:58;;;;;;;38.22;16.95;;;;;;;13.73;100.00;101243.59;5083904;28;20039;-67
2022/06/06 03:25:43;;;;;;;41.72;17.73;;;;;;;13.74;100.00;101242.75;5104850;28;20036;-68
2022/06/06 03:28:17;;;;;;;38.42;17.08;;;;;;;13.75;100.00;101231.28;5090961;28;20031;-67
2022/06/06 03:31:18;;;;;;;39.13;18.92;;;;;;;13.78;100.00;101231.31;5095604;28;20028;-67
2022/06/06 03:34:14;;;;;;;39.53;17.30;;;;;;;13.76;100.00;101233.06;5085481;28;20020;-68
2022/06/06 03:37:13;;;;;;;38.45;16.70;;;;;;;13.74;100.00;101226.88;5087609;28;20035;-68
2022/06/06 03:39:44;;;;;;;36.63;18.02;;;;;;;13.80;100.00;101233.97;5081106;28;20101;-67
2022/06/06 03:42:27;;;;;;;42.38;18.50;;;;;;;13.82;100.00;101233.13;5091134;28;20092;-68
2022/06/06 03:45:25;;;;;;;43.10;18.58;;;;;;;13.85;100.00;101236.66;5093479;28;20379;-67
2022/06/06 03:48:05;;;;;;;39.92;17.25;;;;;;;13.84;100.00;101238.44;5064628;28;20039;-69
2022/06/06 03:51:08;;;;;;;37.97;18.23;;;;;;;13.95;100.00;101228.81;5090978;28;20123;-69
2022/06/06 03:54:07;;;;;;;38.00;17.73;;;;;;;13.97;100.00;101227.09;5090979;28;20054;-68
2022/06/06 03:56:56;;;;;;;44.20;18.73;;;;;;;13.99;100.00;101227.09;5102824;28;20074;-67
2022/06/06 03:59:26;;;;;;;40.92;18.65;;;;;;;13.99;100.00;101235.03;5090147;28;20048;-67
2022/06/06 04:01:58;;;;;;;41.67;19.90;;;;;;;14.00;100.00;101240.34;5093771;28;20534;-67
2022/06/06 04:04:24;;;;;;;50.85;19.60;;;;;;;14.03;100.00;101235.97;5107458;28;20142;-68
2022/06/06 04:06:51;;;;;;;44.10;20.20;;;;;;;14.03;100.00;101234.19;5097494;28;20110;-68
2022/06/06 04:09:17;;;;;;;40.38;19.23;;;;;;;14.05;100.00;101235.06;5102151;28;20034;-68
2022/06/06 04:11:57;;;;;;;39.15;18.13;;;;;;;14.09;100.00;101236.88;5109000;28;20106;-68
2022/06/06 04:14:25;;;;;;;36.00;16.70;;;;;;;14.10;100.00;101233.34;5076541;28;20510;-68
2022/06/06 04:17:09;;;;;;;33.95;15.20;;;;;;;14.06;100.00;101226.25;5110427;28;20054;-67
2022/06/06 04:19:52;;;;;;;;;;;;;;;14.04;100.00;101230.66;5094790;28;20035;-68
2022/06/06 04:22:27;;;;;;;29.27;12.43;;;;;;;14.06;100.00;101228.03;5114831;28;20457;-68
2022/06/06 04:25:04;;;;;;;28.58;12.65;;;;;;;14.02;100.00;101229.75;5106127;28;20080;-68
2022/06/06 04:28:12;;;;;;;26.40;12.13;;;;;;;14.04;100.00;101238.63;5086326;28;20084;-68
2022/06/06 04:31:12;;;;;;;25.23;12.65;;;;;;;14.04;100.00;101246.56;5090575;28;20027;-68
2022/06/06 04:34:03;;;;;;;27.73;12.05;;;;;;;14.08;100.00;101237.75;5095837;28;20093;-67
2022/06/06 04:36:39;;;;;;;23.42;11.68;;;;;;;14.08;100.00;101251.00;5095633;28;20051;-68
2022/06/06 04:39:13;;;;;;;21.13;9.40;;;;;;;14.07;100.00;101243.91;5096164;28;20028;-67
2022/06/06 04:41:45;;;;;;;18.05;9.27;;;;;;;14.05;100.00;101245.66;5098573;28;20020;-67
2022/06/06 04:44:18;;;;;;;20.33;8.98;;;;;;;14.04;100.00;101254.50;5093920;28;20069;-67
2022/06/06 04:46:58;;;;;;;12.35;7.78;;;;;;;14.05;100.00;101244.78;5111646;28;20020;-67
2022/06/06 04:49:27;;;;;;;11.02;6.38;;;;;;;14.01;100.00;101249.16;5094998;28;20059;-68
2022/06/06 04:51:54;;;;;;;12.93;6.38;;;;;;;13.99;100.00;101251.78;5095647;28;20042;-67
2022/06/06 04:54:23;;;;;;;12.10;5.90;;;;;;;14.03;100.00;101250.06;5099607;28;20016;-68
2022/06/06 04:56:51;;;;;;;12.75;5.28;;;;;;;13.98;100.00;101244.75;5095520;28;20024;-66
2022/06/06 04:59:19;;;;;;;11.75;5.32;;;;;;;14.00;100.00;101252.69;5099714;28;20024;-67
2022/06/06 05:01:46;;;;;;;12.30;4.82;;;;;;;14.06;100.00;101252.72;5095357;28;20119;-68
2022/06/06 05:04:11;;;;;;;11.32;5.05;;;;;;;14.10;100.00;101264.22;5094586;28;20028;-68
2022/06/06 05:06:55;;;;;;;8.82;4.75;;;;;;;14.05;100.00;101250.94;5100381;28;20068;-68
2022/06/06 05:09:35;;;;;;;14.00;4.55;;;;;;;14.10;100.00;101251.00;5096653;28;20016;-68
2022/06/06 05:12:22;;;;;;;9.27;3.60;;;;;;;14.12;100.00;101250.16;5090685;28;20024;-69
2022/06/06 05:14:54;;;;;;;8.75;3.55;;;;;;;14.14;100.00;101260.75;5091751;28;20036;-68
2022/06/06 05:17:40;;;;;;;8.68;3.40;;;;;;;14.09;100.00;101254.50;5093714;28;20028;-68
2022/06/06 05:20:11;;;;;;;13.10;4.35;;;;;;;14.05;100.00;101243.00;5104647;28;20165;-67
2022/06/06 05:22:36;;;;;;;10.32;4.15;;;;;;;14.05;100.00;101250.94;5105572;28;20028;-68
2022/06/06 05:25:01;;;;;;;13.45;3.80;;;;;;;13.95;100.00;101238.53;5098496;28;20028;-67
2022/06/06 05:27:27;;;;;;;11.25;3.80;;;;;;;13.95;100.00;101235.88;5096129;28;20464;-67
2022/06/06 05:30:07;;;;;;;11.48;3.40;;;;;;;14.04;100.00;101233.31;5094269;28;20154;-67
2022/06/06 05:32:49;;;;;;;7.53;3.28;;;;;;;14.04;100.00;101238.63;5095073;28;20031;-69
2022/06/06 05:35:39;;;;;;;14.00;3.75;;;;;;;14.06;100.00;101242.13;5093135;28;20032;-69
2022/06/06 05:38:35;;;;;;;9.45;2.75;;;;;;;14.07;100.00;101241.28;5081143;28;20024;-68
2022/06/06 05:41:09;;;;;;;6.38;2.75;;;;;;;14.18;100.00;101245.78;5092489;28;20039;-68
2022/06/06 05:44:01;;;;;;;7.20;3.70;;;;;;;14.29;100.00;101238.81;5085857;28;20023;-68
2022/06/06 05:46:55;;;;;;;5.55;2.75;;;;;;;14.20;100.00;101238.72;5092778;28;20426;-68
2022/06/06 05:49:21;;;;;;;8.85;3.00;;;;;;;14.16;100.00;101244.00;5093211;28;20748;-66
2022/06/06 05:52:12;;;;;;;10.05;2.67;;;;;;;14.18;100.00;101245.78;5095530;28;20134;-67
2022/06/06 05:55:15;;;;;;;5.47;2.80;;;;;;;14.26;100.00;101242.31;5093615;28;20074;-67
2022/06/06 05:58:20;;;;;;;11.25;2.80;;;;;;;14.19;100.00;101239.59;5086914;28;20043;-68
2022/06/06 06:01:23;;;;;;;11.15;2.63;;;;;;;14.20;100.00;101249.31;5093305;28;20039;-68
2022/06/06 06:04:00;;;;;;;4.03;2.30;;;;;;;14.25;100.00;101253.75;5095794;28;20031;-68
2022/06/06 06:06:52;;;;;;;6.05;2.33;;;;;;;14.30;100.00;101252.03;5097174;28;20023;-69
2022/06/06 06:09:41;;;;;;;5.93;2.40;;;;;;;14.36;100.00;101252.97;5101419;28;20048;-68
2022/06/06 06:12:40;;;;;;;8.98;2.25;;;;;;;14.36;100.00;101245.03;5091203;28;20032;-67
2022/06/06 06:15:17;;;;;;;8.00;2.50;;;;;;;14.42;100.00;101248.63;5091502;28;20511;-67
2022/06/06 06:17:44;;;;;;;6.43;2.42;;;;;;;14.45;100.00;101239.81;5094139;28;20066;-68
2022/06/06 06:20:13;;;;;;;6.75;2.67;;;;;;;14.49;100.00;101250.41;5091676;28;20080;-67
2022/06/06 06:22:46;;;;;;;9.48;2.28;;;;;;;14.47;100.00;101260.13;5102451;28;20638;-67
2022/06/06 06:25:14;;;;;;;9.15;2.88;;;;;;;14.49;100.00;101263.66;5095544;28;20028;-67
2022/06/06 06:27:41;;;;;;;7.05;1.85;;;;;;;14.55;100.00;101256.63;5092687;28;20067;-68
2022/06/06 06:30:08;;;;;;;5.85;1.83;;;;;;;14.57;100.00;101260.16;5093981;28;20028;-68
2022/06/06 06:33:15;;;;;;;6.93;1.83;;;;;;;14.56;100.00;101255.78;5091849;28;20059;-68
2022/06/06 06:36:19;;;;;;;9.60;1.67;;;;;;;14.66;100.00;101258.53;5081724;28;20063;-68
2022/06/06 06:39:06;;;;;;;7.55;1.85;;;;;;;14.77;100.00;101255.94;5090458;28;20034;-67
2022/06/06 06:41:37;;;;;;;5.85;1.88;;;;;;;14.89;100.00;101256.88;5107636;28;20027;-68
2022/06/06 06:44:09;;;;;;;6.70;1.67;;;;;;;14.86;100.00;101256.88;5095849;28;20110;-66
2022/06/06 06:46:47;;;;;;;8.60;1.70;;;;;;;14.89;100.00;101267.47;5095695;27;20224;-67
2022/06/06 06:49:43;;;;;;;5.60;1.40;;;;;;;15.04;100.00;101269.31;5095795;28;20119;-67
2022/06/06 06:52:18;;;;;;;8.95;1.67;;;;;;;15.18;100.00;101263.19;5083529;28;20035;-69
2022/06/06 06:55:08;;;;;;;10.23;1.52;;;;;;;15.20;100.00;101262.31;5088665;28;20060;-68
2022/06/06 06:57:48;;;;;;;5.20;2.13;;;;;;;15.11;100.00;101269.38;5074421;28;20067;-67
2022/06/06 07:00:19;;;;;;;5.93;1.55;;;;;;;15.01;100.00;101267.53;5092173;28;20079;-67
2022/06/06 07:09:01;;;;;;;6.80;1.42;;;;;;;14.81;100.00;101270.97;5089252;28;20119;-68
2022/06/06 07:11:45;;;;;;;4.60;1.60;;;;;;;14.82;100.00;101278.03;5085208;28;20367;-67
2022/06/06 07:14:25;;;;;;;10.07;2.08;;;;;;;14.90;100.00;101266.59;5088693;28;20453;-68
2022/06/06 07:16:56;;;;;;;5.75;1.55;;;;;;;15.00;100.00;101271.06;5106716;28;20024;-68
2022/06/06 07:19:58;;;;;;;5.35;1.42;;;;;;;15.00;100.00;101273.72;5090422;28;20517;-66
2022/06/06 07:22:28;;;;;;;7.97;1.30;;;;;;;14.92;100.00;101264.81;5090918;28;20043;-67
2022/06/06 07:24:58;;;;;;;5.88;1.27;;;;;;;14.88;100.00;101271.00;5095725;28;20479;-66
2022/06/06 07:27:23;;;;;;;4.32;1.20;;;;;;;15.05;100.00;101273.75;5091974;28;20425;-68
2022/06/06 07:29:49;;;;;;;3.35;1.10;;;;;;;15.01;100.00;101267.53;5087823;28;20024;-68
2022/06/06 07:32:43;;;;;;;5.78;1.20;;;;;;;15.17;100.00;101264.06;5093003;28;20386;-68
2022/06/06 07:35:22;;;;;;;10.18;1.70;;;;;;;15.38;100.00;101269.47;5091162;28;20017;-68
2022/06/06 07:37:50;;;;;;;2.47;1.10;;;;;;;15.55;100.00;101280.13;5083595;28;20103;-68
2022/06/06 07:40:30;;;;;;;8.95;1.58;;;;;;;15.62;100.00;101285.44;5084193;28;20526;-68
2022/06/06 07:43:03;;;;;;;7.75;1.50;;;;;;;15.52;100.00;101276.56;5082245;28;20077;-67
2022/06/06 07:45:34;;;;;;;8.30;1.38;;;;;;;15.58;100.00;101290.75;5088053;28;20032;-68
2022/06/06 07:48:05;;;;;;;8.75;1.65;;;;;;;15.58;100.00;101281.00;5094523;28;20020;-69
2022/06/06 07:51:03;;;;;;;9.05;1.08;;;;;;;15.76;100.00;101288.16;5087574;28;20048;-69
2022/06/06 07:53:50;;;;;;;9.45;1.90;;;;;;;15.81;100.00;101277.56;5069984;28;20123;-68
2022/06/06 07:56:33;;;;;;;10.93;2.05;;;;;;;15.83;100.00;101281.13;5085863;28;20036;-67
2022/06/06 07:59:30;;;;;;;8.25;1.35;;;;;;;15.97;100.00;101273.19;5095456;28;20107;-68
2022/06/06 08:02:03;;;;;;;6.95;1.30;;;;;;;15.99;100.00;101290.88;5087361;28;20050;-68
2022/06/06 08:04:53;;;;;;;10.15;1.50;;;;;;;16.05;100.00;101275.81;5092006;28;20045;-69
2022/06/06 08:07:25;;;;;;;4.88;1.40;;;;;;;16.12;100.00;101278.50;5089116;28;20028;-68
2022/06/06 08:10:01;;;;;;;4.07;1.20;;;;;;;16.22;100.00;101265.22;5092424;28;20048;-69
2022/06/06 08:12:55;;;;;;;5.47;1.10;;;;;;;16.42;100.00;101282.03;5089834;28;20103;-75
2022/06/06 08:15:27;;;;;;;3.50;1.20;;;;;;;16.34;100.00;101284.69;5089513;28;20036;-69
2022/06/06 08:18:10;;;;;;;6.93;1.38;;;;;;;16.08;100.00;101292.63;5089893;28;20039;-69
2022/06/06 08:20:54;;;;;;;4.78;0.93;;;;;;;15.77;100.00;101289.91;5083853;28;20480;-67
2022/06/06 08:23:22;;;;;;;6.53;1.60;;;;;;;15.57;100.00;101283.66;5090625;28;20016;-68
2022/06/06 08:25:49;;;;;;;5.03;1.33;;;;;;;15.71;100.00;101297.88;5094111;28;20099;-68
2022/06/06 08:28:16;;;;;;;7.90;2.05;;;;;;;15.74;100.00;101287.25;5090346;28;20050;-69
2022/06/06 08:30:44;;;;;;;5.60;1.80;;;;;;;15.76;100.00;101277.53;5095574;28;20395;-68
2022/06/06 08:33:10;;;;;;;12.88;1.50;;;;;;;15.96;100.00;101274.06;5094590;28;20388;-68
2022/06/06 08:36:00;;;;;;;8.93;1.45;;;;;;;16.27;100.00;101274.94;5095343;28;20032;-68
2022/06/06 08:38:47;;;;;;;5.47;1.17;;;;;;;16.39;100.00;101271.41;5090234;28;20365;-68
2022/06/06 08:41:27;;;;;;;4.63;1.02;;;;;;;16.20;100.00;101270.53;5088878;28;20020;-68
2022/06/06 08:44:10;;;;;;;7.05;1.58;;;;;;;15.99;100.00;101271.38;5090439;28;20036;-68
2022/06/06 08:46:54;;;;;;;;;;;;;;;15.98;100.00;101269.66;5086508;28;20036;-69
2022/06/06 08:52:37;;;;;;;8.32;1.67;;;;;;;16.08;100.00;101266.09;5084725;28;20039;-69
2022/06/06 08:55:29;;;;;;;4.05;1.23;;;;;;;16.04;100.00;101264.31;5092486;28;20097;-69
2022/06/06 08:58:19;;;;;;;6.18;1.60;;;;;;;15.92;100.00;101264.31;5070521;28;20119;-68
2022/06/06 09:01:03;;;;;;;4.82;1.27;;;;;;;15.90;100.00;101266.06;5084413;28;20036;-68
2022/06/06 09:04:05;;;;;;;14.00;2.75;;;;;;;15.96;100.00;101260.78;5091711;28;20051;-68
2022/06/06 09:06:58;;;;;;;3.97;1.73;;;;;;;15.88;100.00;101265.19;5091936;28;20086;-68
2022/06/06 09:09:31;;;;;;;5.47;1.42;;;;;;;16.17;100.00;101273.19;5086256;28;20024;-68
2022/06/06 09:12:23;;;;;;;13.50;2.00;;;;;;;16.34;100.00;101258.13;5086314;28;20029;-69
2022/06/06 09:15:19;;;;;;;5.95;1.58;;;;;;;16.11;100.00;101255.47;5094044;28;20115;-68
2022/06/06 09:17:53;;;;;;;12.25;1.75;;;;;;;16.02;100.00;101247.53;5080188;28;20028;-68
2022/06/06 09:20:29;;;;;;;3.78;1.30;;;;;;;15.88;100.00;101262.53;5094669;28;20020;-68
2022/06/06 09:23:25;;;;;;;4.47;1.20;;;;;;;15.89;100.00;101257.22;5090190;28;20024;-67
2022/06/06 09:25:59;;;;;;;6.57;1.42;;;;;;;15.95;100.00;101246.63;5083449;28;20082;-68
2022/06/06 09:28:36;;;;;;;7.43;1.15;;;;;;;16.15;100.00;101262.53;5087711;28;20028;-68
2022/06/06 09:31:46;;;;;;;5.45;1.20;;;;;;;16.32;100.00;101259.03;5087909;28;20100;-67
2022/06/06 09:34:48;;;;;;;3.80;1.40;;;;;;;16.21;100.00;101287.34;5068286;28;20442;-67
2022/06/06 09:37:56;;;;;;;7.55;1.15;;;;;;;15.90;100.00;101261.66;5089605;28;20036;-68
2022/06/06 09:40:40;;;;;;;4.82;1.85;;;;;;;16.04;100.00;101263.44;5083131;28;20048;-67
2022/06/06 09:43:13;;;;;;;7.32;1.60;;;;;;;16.06;100.00;101256.34;5091886;28;20055;-68
2022/06/06 09:45:53;;;;;;;7.28;1.70;;;;;;;16.19;100.00;101253.69;5087189;28;20027;-69
2022/06/06 09:48:41;;;;;;;5.70;1.65;;;;;;;16.40;100.00;101256.34;5085013;28;20443;-67
2022/06/06 09:51:22;;;;;;;5.13;1.23;;;;;;;16.51;100.00;101258.13;5093245;28;20129;-67
2022/06/06 10:00:09;;;;;;;6.22;1.58;;;;;;;16.61;100.00;101250.13;5089487;28;20043;-69
2022/06/06 10:02:51;;;;;;;6.65;1.90;;;;;;;16.72;100.00;101248.31;5092848;28;20024;-68
2022/06/06 10:05:44;;;;;;;6.68;1.65;;;;;;;16.68;100.00;101239.50;5093045;28;20471;-68
2022/06/06 10:08:21;;;;;;;4.38;1.27;;;;;;;16.85;100.00;101249.19;5087994;28;20032;-68
2022/06/06 10:10:49;;;;;;;8.30;1.52;;;;;;;16.64;100.00;101239.50;5085571;28;20040;-69
2022/06/06 10:13:23;;;;;;;5.55;1.42;;;;;;;16.64;100.00;101244.81;5089722;28;20385;-69
2022/06/06 10:16:07;;;;;;;5.05;1.50;;;;;;;16.49;100.00;101236.00;5086460;28;20028;-69
2022/06/06 10:18:53;;;;;;;8.95;1.98;;;;;;;16.55;100.00;101239.50;5085582;28;20024;-68
2022/06/06 10:21:43;;;;;;;7.15;1.92;;;;;;;16.51;100.00;101239.53;5086943;28;20043;-68
2022/06/06 10:24:56;;;;;;;6.22;1.92;;;;;;;16.46;100.00;101235.97;5081682;28;20027;-68
2022/06/06 10:27:31;;;;;;;9.25;2.13;;;;;;;16.50;100.00;101237.75;5064335;28;20477;-68
2022/06/06 10:30:11;;;;;;;10.82;2.13;;;;;;;16.62;100.00;101235.97;5085408;28;20032;-69
2022/06/06 10:32:58;;;;;;;8.32;1.75;;;;;;;16.41;100.00;101242.19;5077366;28;20115;-68
2022/06/06 10:36:00;;;;;;;7.00;1.70;;;;;;;16.40;100.00;101243.97;5088454;28;20042;-68
2022/06/06 10:38:44;;;;;;;7.82;2.20;;;;;;;16.34;100.00;101239.53;5088834;28;20043;-69
2022/06/06 10:41:21;;;;;;;5.65;1.70;;;;;;;16.41;100.00;101235.09;5089816;28;20030;-68
2022/06/06 10:43:49;;;;;;;10.18;2.40;;;;;;;16.44;100.00;101244.84;5092547;28;20024;-70
2022/06/06 10:46:25;;;;;;;8.50;2.38;;;;;;;16.31;100.00;101243.97;5092241;28;20028;-69
2022/06/06 10:49:12;;;;;;;7.03;2.10;;;;;;;16.39;100.00;101234.22;5096366;28;20059;-68
2022/06/06 10:52:20;;;;;;;5.43;1.92;;;;;;;16.44;100.00;101244.84;5072325;28;20029;-69
2022/06/06 10:55:04;;;;;;;5.75;1.77;;;;;;;16.48;100.00;101236.88;5091186;28;20030;-69
2022/06/06 10:57:31;;;;;;;;;;;;;;;16.49;100.00;101238.66;5093833;28;20024;-70
2022/06/06 11:00:08;;;;;;;5.28;1.90;;;;;;;16.34;100.00;101236.88;5092258;28;20371;-70
2022/06/06 11:02:48;;;;;;;8.95;2.30;;;;;;;16.28;100.00;101246.63;5093549;28;20107;-68
2022/06/06 11:05:41;;;;;;;5.95;2.08;;;;;;;16.13;100.00;101248.41;5073266;28;20032;-68
2022/06/06 11:08:16;;;;;;;9.82;2.53;;;;;;;15.82;100.00;101243.06;5079937;28;20048;-68
2022/06/06 11:11:11;;;;;;;9.35;2.72;;;;;;;15.61;100.00;101251.88;5073330;28;20052;-69
2022/06/06 11:14:14;;;;;;;8.20;2.38;;;;;;;15.24;100.00;101248.19;5086801;28;20108;-69
2022/06/06 11:17:00;;;;;;;9.40;2.60;;;;;;;15.21;100.00;101243.78;5092419;28;20038;-69
2022/06/06 11:19:59;;;;;;;6.35;2.58;;;;;;;15.26;100.00;101238.47;5092185;28;20129;-69
2022/06/06 11:22:31;;;;;;;6.45;2.60;;;;;;;15.36;100.00;101245.59;5073282;28;20025;-69
2022/06/06 11:25:05;;;;;;;6.93;2.20;;;;;;;15.28;100.00;101240.25;5073217;28;20216;-68
2022/06/06 11:28:08;;;;;;;9.35;2.20;;;;;;;15.25;100.00;101228.78;5077682;28;20378;-68
2022/06/06 11:30:58;;;;;;;8.07;2.58;;;;;;;15.14;100.00;101224.31;5093057;28;20039;-68
2022/06/06 11:33:53;;;;;;;5.03;2.25;;;;;;;15.01;100.00;101241.03;5092989;28;20035;-69
2022/06/06 11:36:46;;;;;;;10.95;2.22;;;;;;;15.06;100.00;101234.00;5092317;28;20506;-68
2022/06/06 11:39:14;;;;;;;6.33;2.07;;;;;;;15.04;100.00;101230.44;5092518;28;20051;-68
2022/06/06 11:42:07;;;;;;;9.73;2.58;;;;;;;15.22;100.00;101237.59;5091833;28;20294;-68
2022/06/06 11:45:07;;;;;;;6.45;2.63;;;;;;;15.37;100.00;101223.50;5093686;28;20032;-67
2022/06/06 11:47:55;;;;;;;7.50;2.15;;;;;;;15.40;100.00;101228.81;5091748;28;20055;-68
2022/06/06 11:51:00;;;;;;;9.43;2.55;;;;;;;15.32;100.00;101238.50;5078106;28;20055;-69
2022/06/06 11:53:40;;;;;;;8.20;2.35;;;;;;;15.25;100.00;101227.00;5091817;28;20036;-69
2022/06/06 11:56:20;;;;;;;5.07;2.20;;;;;;;15.30;100.00;101221.69;5072877;28;20029;-68
2022/06/06 11:59:25;;;;;;;7.82;2.38;;;;;;;15.29;100.00;101223.47;5084442;28;20063;-67
2022/06/06 12:02:09;;;;;;;7.03;2.28;;;;;;;15.23;100.00;101225.22;5093018;28;20055;-69
2022/06/06 12:04:53;;;;;;;11.63;2.80;;;;;;;14.98;100.00;101219.81;5090824;28;20073;-68
2022/06/06 12:07:36;;;;;;;;;;;;;;;14.67;100.00;101232.91;5093176;28;20090;-68
2022/06/06 12:10:22;;;;;;;5.03;2.58;;;;;;;14.45;100.00;101224.78;5108000;28;19981;-69
2022/06/06 12:13:38;;;;;;;6.03;2.38;;;;;;;14.36;100.00;101235.31;5099726;28;20436;-69
2022/06/06 12:16:09;;;;;;;7.28;3.15;;;;;;;14.25;100.00;101237.00;5091987;28;20027;-67
2022/06/06 12:18:59;;;;;;;6.30;3.13;;;;;;;14.22;100.00;101218.47;5092941;28;20028;-69
2022/06/06 12:21:30;;;;;;;7.45;2.22;;;;;;;14.16;100.00;101220.19;5092726;28;20028;-69
2022/06/06 12:24:14;;;;;;;8.00;3.17;;;;;;;14.17;100.00;101223.69;5095530;28;20418;-69
2022/06/06 12:26:55;;;;;;;5.68;2.13;;;;;;;14.20;100.00;101236.06;5095556;28;20495;-68
2022/06/06 12:29:48;;;;;;;6.10;1.20;;;;;;;14.06;100.00;101234.19;5096602;28;20072;-67